Tropical Cyclones
[Index]
Main Index Home Page Stock Weather Photos Extreme Storms Discussion Storm News and Storm Chasing Reports Tropical Cyclones / Hurricanes / Typhoons Weather Data and Links Wild Fires / Bushfires Weather Observation Techniques Weather Picture Catalogue Tornado Pictures and Reports Stock Video Footage and DVDs for sale
Season 1998-1999 Tropical Cyclone DANI Track Map
Season 1998-1999 Summaries: [BoM-AU] [JTWC-AU] [JTWC-SIO] [JTWC-SPAC] [JTWC-SH]
<<- Previous TC | JTWC 1998-1999 Season | Next TC ->>

click for intensity scale information  Lat/long Grid: Show Hide

 Date Labels: Show Hide

Joint Typhoon Warning Centre Cyclone Data

Name: DANI

13 Jan 1999 00:00 UTC to 23 Jan 1999 06:00 UTC

    date/time    lat    long     hPa   cat  kts
1999-01-13 00   13.3   163.8                  20          
1999-01-13 06   13.4   163.8                  20          
1999-01-13 12   13.8   163.8                  20          
1999-01-13 18   14.0   163.8                  25          
1999-01-14 00   14.4   163.9                  30          
1999-01-14 06   14.8   164.0                  30          
1999-01-14 12   15.3   164.1                  35          
1999-01-14 18   15.6   164.2            1     40          
1999-01-15 00   15.9   164.2            1     40          
1999-01-15 06   16.4   164.2            1     45          
1999-01-15 12   16.6   164.2            1     50          
1999-01-15 18   16.7   164.3            2     60          
1999-01-16 00   16.8   164.3            2     70          
1999-01-16 06   16.8   164.1            3     75          
1999-01-16 12   16.3   163.9            3     90          
1999-01-16 18   15.7   163.7            4    110          
1999-01-17 00   15.0   163.5            4    115          
1999-01-17 06   14.3   163.4            4    100          
1999-01-17 12   13.6   163.5            4    100          
1999-01-17 18   13.1   163.8            3     95          
1999-01-18 00   12.8   164.7            4    100          
1999-01-18 06   13.0   165.3            4    100          
1999-01-18 12   13.3   165.9            4    100          
1999-01-18 18   13.7   166.5            4    100          
1999-01-19 00   14.7   166.8            4    100          
1999-01-19 06   15.6   166.8            3     90          
1999-01-19 12   16.1   167.1            3     90          
1999-01-19 18   16.9   167.2            3     80          
1999-01-20 00   17.7   167.4            3     85          
1999-01-20 06   18.7   167.7            3     90          
1999-01-20 12   19.8   167.9            3     90          
1999-01-20 18   20.8   168.1            3     90          
1999-01-21 00   21.8   168.5            3     85          
1999-01-21 06   23.0   169.1            3     85          
1999-01-21 12   24.1   170.2            2     70          
1999-01-21 18   25.2   171.2            2     65          
1999-01-22 00   26.2   172.4            2     60          
1999-01-22 06   27.2   173.7            2     60          
1999-01-22 12   28.1   174.9            2     55          
1999-01-22 18   28.5   175.7            2     55          
1999-01-23 00   29.7   176.7            1     45          
1999-01-23 06   31.1   177.7            1     45          
Winds are 1-min average.

Tropical cyclone tracks developed by Michael Bath using data from the Joint Typhoon Warning Centre Best Tracks and Google Maps.


[Australian Severe Weather index] [Copyright Notice] [Email Contacts] [Search This Site] [Privacy Policy]
Document: tropical_cyclone_dani.htm Updated: 18 September 2016